sensor_id;sensor_type;location;lat;lon;timestamp;pressure;altitude;pressure_sealevel;temperature;humidity
61906;BME280;47863;55.766;37.672;2023-03-21T00:01:04;99522.34;;;4.58;49.05
61906;BME280;47863;55.766;37.672;2023-03-21T00:03:31;99516.22;;;4.57;49.16
61906;BME280;47863;55.766;37.672;2023-03-21T00:05:58;99488.19;;;4.44;48.64
61906;BME280;47863;55.766;37.672;2023-03-21T00:08:25;99480.13;;;4.45;48.58
61906;BME280;47863;55.766;37.672;2023-03-21T00:10:58;99492.47;;;4.56;49.04
61906;BME280;47863;55.766;37.672;2023-03-21T00:13:26;99497.13;;;4.64;49.22
61906;BME280;47863;55.766;37.672;2023-03-21T00:15:53;99492.78;;;4.63;48.72
61906;BME280;47863;55.766;37.672;2023-03-21T00:18:20;99497.06;;;4.75;48.64
61906;BME280;47863;55.766;37.672;2023-03-21T00:21:03;99481.19;;;4.64;48.61
61906;BME280;47863;55.766;37.672;2023-03-21T00:23:31;99477.00;;;4.61;48.49
61906;BME280;47863;55.766;37.672;2023-03-21T00:25:58;99492.28;;;4.69;48.70
61906;BME280;47863;55.766;37.672;2023-03-21T00:28:24;99490.03;;;4.64;48.62
61906;BME280;47863;55.766;37.672;2023-03-21T00:30:49;99397.28;;;4.11;48.80
61906;BME280;47863;55.766;37.672;2023-03-21T00:33:15;99488.06;;;4.66;48.65
61906;BME280;47863;55.766;37.672;2023-03-21T00:35:45;99458.97;;;4.55;48.56
61906;BME280;47863;55.766;37.672;2023-03-21T00:38:14;99485.59;;;4.74;48.54
61906;BME280;47863;55.766;37.672;2023-03-21T00:40:39;99479.19;;;4.77;48.55
61906;BME280;47863;55.766;37.672;2023-03-21T00:43:05;99475.00;;;4.74;48.50
61906;BME280;47863;55.766;37.672;2023-03-21T00:45:31;99467.16;;;4.73;48.55
61906;BME280;47863;55.766;37.672;2023-03-21T00:47:57;99478.06;;;4.80;48.28
61906;BME280;47863;55.766;37.672;2023-03-21T00:50:23;99472.91;;;4.78;48.29
61906;BME280;47863;55.766;37.672;2023-03-21T00:52:49;99468.84;;;4.74;48.59
61906;BME280;47863;55.766;37.672;2023-03-21T00:55:16;99467.69;;;4.67;48.88
61906;BME280;47863;55.766;37.672;2023-03-21T00:57:42;99441.03;;;4.47;48.97
61906;BME280;47863;55.766;37.672;2023-03-21T01:00:12;99459.66;;;4.57;49.52
61906;BME280;47863;55.766;37.672;2023-03-21T01:02:38;99451.66;;;4.47;49.57
61906;BME280;47863;55.766;37.672;2023-03-21T01:05:08;99452.19;;;4.41;49.17
61906;BME280;47863;55.766;37.672;2023-03-21T01:07:35;99458.66;;;4.48;49.61
61906;BME280;47863;55.766;37.672;2023-03-21T01:10:01;99456.97;;;4.47;50.12
61906;BME280;47863;55.766;37.672;2023-03-21T01:12:27;99452.88;;;4.43;49.65
61906;BME280;47863;55.766;37.672;2023-03-21T01:14:52;99460.84;;;4.43;50.30
61906;BME280;47863;55.766;37.672;2023-03-21T01:17:18;99450.47;;;4.40;50.62
61906;BME280;47863;55.766;37.672;2023-03-21T01:19:43;99411.97;;;4.15;51.11
61906;BME280;47863;55.766;37.672;2023-03-21T01:22:09;99440.53;;;4.32;50.79
61906;BME280;47863;55.766;37.672;2023-03-21T01:24:35;99440.16;;;4.37;50.30
61906;BME280;47863;55.766;37.672;2023-03-21T01:27:02;99407.97;;;4.21;50.06
61906;BME280;47863;55.766;37.672;2023-03-21T01:29:27;99434.44;;;4.42;50.04
61906;BME280;47863;55.766;37.672;2023-03-21T01:31:53;99417.81;;;4.40;50.14
61906;BME280;47863;55.766;37.672;2023-03-21T01:34:20;99400.44;;;4.26;50.18
61906;BME280;47863;55.766;37.672;2023-03-21T01:36:46;99428.03;;;4.44;50.13
61906;BME280;47863;55.766;37.672;2023-03-21T01:39:11;99436.84;;;4.45;50.05
61906;BME280;47863;55.766;37.672;2023-03-21T01:41:39;99405.50;;;4.29;50.40
61906;BME280;47863;55.766;37.672;2023-03-21T01:44:09;99407.16;;;4.30;49.83
61906;BME280;47863;55.766;37.672;2023-03-21T01:46:39;99442.06;;;4.56;49.82
61906;BME280;47863;55.766;37.672;2023-03-21T01:49:36;99434.69;;;4.60;49.94
61906;BME280;47863;55.766;37.672;2023-03-21T01:52:04;99433.97;;;4.57;50.14
61906;BME280;47863;55.766;37.672;2023-03-21T01:54:33;99431.31;;;4.57;50.29
61906;BME280;47863;55.766;37.672;2023-03-21T01:57:07;99393.66;;;4.33;49.76
61906;BME280;47863;55.766;37.672;2023-03-21T01:59:40;99431.59;;;4.54;50.48
61906;BME280;47863;55.766;37.672;2023-03-21T02:02:11;99430.19;;;4.50;50.01
61906;BME280;47863;55.766;37.672;2023-03-21T02:04:42;99427.53;;;4.50;50.34
61906;BME280;47863;55.766;37.672;2023-03-21T02:07:31;99424.72;;;4.52;50.17
61906;BME280;47863;55.766;37.672;2023-03-21T02:10:01;99414.28;;;4.50;50.36
61906;BME280;47863;55.766;37.672;2023-03-21T02:12:30;99422.06;;;4.52;50.21
61906;BME280;47863;55.766;37.672;2023-03-21T02:14:56;99421.13;;;4.53;50.01
61906;BME280;47863;55.766;37.672;2023-03-21T02:28:59;99406.75;;;4.55;49.88
61906;BME280;47863;55.766;37.672;2023-03-21T02:31:38;99382.25;;;4.42;49.79
61906;BME280;47863;55.766;37.672;2023-03-21T02:34:11;99404.78;;;4.57;49.57
61906;BME280;47863;55.766;37.672;2023-03-21T02:37:34;99397.53;;;4.60;50.43
61906;BME280;47863;55.766;37.672;2023-03-21T02:45:35;99391.66;;;4.56;49.73
61906;BME280;47863;55.766;37.672;2023-03-21T02:48:07;99368.16;;;4.42;49.90
61906;BME280;47863;55.766;37.672;2023-03-21T02:50:37;99401.56;;;4.54;49.94
61906;BME280;47863;55.766;37.672;2023-03-21T02:53:09;99401.13;;;4.49;50.25
61906;BME280;47863;55.766;37.672;2023-03-21T02:55:37;99399.72;;;4.45;49.93
61906;BME280;47863;55.766;37.672;2023-03-21T02:58:08;99399.00;;;4.43;50.31
61906;BME280;47863;55.766;37.672;2023-03-21T03:00:35;99284.25;;;3.58;50.06
61906;BME280;47863;55.766;37.672;2023-03-21T03:03:01;99386.84;;;4.40;50.01
61906;BME280;47863;55.766;37.672;2023-03-21T03:05:31;99296.13;;;3.85;50.22
61906;BME280;47863;55.766;37.672;2023-03-21T03:08:20;99386.13;;;4.38;50.39
61906;BME280;47863;55.766;37.672;2023-03-21T03:24:22;99371.25;;;4.47;49.84
61906;BME280;47863;55.766;37.672;2023-03-21T03:26:57;99324.78;;;4.22;50.59
61906;BME280;47863;55.766;37.672;2023-03-21T03:29:26;99365.66;;;4.50;50.03
61906;BME280;47863;55.766;37.672;2023-03-21T03:32:16;99366.53;;;4.50;49.82
61906;BME280;47863;55.766;37.672;2023-03-21T03:34:46;99365.41;;;4.53;49.84
61906;BME280;47863;55.766;37.672;2023-03-21T03:37:19;99327.94;;;4.36;50.01
61906;BME280;47863;55.766;37.672;2023-03-21T03:42:18;99356.50;;;4.64;49.38
61906;BME280;47863;55.766;37.672;2023-03-21T03:44:44;99361.16;;;4.71;49.53
61906;BME280;47863;55.766;37.672;2023-03-21T03:47:26;99367.50;;;4.80;49.68
61906;BME280;47863;55.766;37.672;2023-03-21T03:52:38;99334.91;;;4.68;49.27
61906;BME280;47863;55.766;37.672;2023-03-21T03:55:10;99363.84;;;4.81;49.21
61906;BME280;47863;55.766;37.672;2023-03-21T03:57:37;99362.44;;;4.77;49.60
61906;BME280;47863;55.766;37.672;2023-03-21T04:00:03;99334.16;;;4.56;49.52
61906;BME280;47863;55.766;37.672;2023-03-21T04:02:36;99361.03;;;4.73;49.69
61906;BME280;47863;55.766;37.672;2023-03-21T04:05:01;99361.03;;;4.73;49.44
61906;BME280;47863;55.766;37.672;2023-03-21T04:07:28;99329.00;;;4.55;49.29
61906;BME280;47863;55.766;37.672;2023-03-21T04:09:54;99334.88;;;4.59;49.18
61906;BME280;47863;55.766;37.672;2023-03-21T04:12:20;99304.09;;;4.46;49.26
61906;BME280;47863;55.766;37.672;2023-03-21T04:14:46;99345.25;;;4.81;49.12
61906;BME280;47863;55.766;37.672;2023-03-21T04:17:11;99349.31;;;4.85;49.05
61906;BME280;47863;55.766;37.672;2023-03-21T04:19:37;99329.63;;;4.78;49.25
61906;BME280;47863;55.766;37.672;2023-03-21T04:22:02;99347.94;;;4.91;49.13
61906;BME280;47863;55.766;37.672;2023-03-21T04:24:28;99345.03;;;4.94;49.21
61906;BME280;47863;55.766;37.672;2023-03-21T04:26:57;99331.91;;;4.92;49.25
61906;BME280;47863;55.766;37.672;2023-03-21T04:29:23;99342.94;;;4.97;49.12
61906;BME280;47863;55.766;37.672;2023-03-21T04:31:48;99342.09;;;4.97;48.95
61906;BME280;47863;55.766;37.672;2023-03-21T04:34:14;99347.72;;;5.04;49.35
61906;BME280;47863;55.766;37.672;2023-03-21T04:36:39;99348.81;;;5.11;48.98
61906;BME280;47863;55.766;37.672;2023-03-21T04:39:12;99338.53;;;5.18;49.09
61906;BME280;47863;55.766;37.672;2023-03-21T04:41:39;99340.75;;;5.22;49.05
61906;BME280;47863;55.766;37.672;2023-03-21T04:44:05;99321.03;;;5.15;49.15
61906;BME280;47863;55.766;37.672;2023-03-21T04:46:31;99342.03;;;5.28;48.96
61906;BME280;47863;55.766;37.672;2023-03-21T04:48:57;99305.25;;;5.04;48.71
61906;BME280;47863;55.766;37.672;2023-03-21T04:51:23;99337.09;;;5.23;49.09
61906;BME280;47863;55.766;37.672;2023-03-21T04:53:49;99336.00;;;5.26;48.79
61906;BME280;47863;55.766;37.672;2023-03-21T04:56:17;99336.00;;;5.26;48.99
61906;BME280;47863;55.766;37.672;2023-03-21T04:58:44;99311.94;;;5.08;49.06
61906;BME280;47863;55.766;37.672;2023-03-21T05:01:09;99336.56;;;5.29;48.94
61906;BME280;47863;55.766;37.672;2023-03-21T05:03:38;99337.81;;;5.35;49.03
61906;BME280;47863;55.766;37.672;2023-03-21T05:06:08;99345.53;;;5.48;48.74
61906;BME280;47863;55.766;37.672;2023-03-21T05:08:36;99340.66;;;5.53;48.58
61906;BME280;47863;55.766;37.672;2023-03-21T05:11:02;99344.00;;;5.55;49.14
61906;BME280;47863;55.766;37.672;2023-03-21T05:13:28;99343.69;;;5.48;49.04
61906;BME280;47863;55.766;37.672;2023-03-21T05:15:54;99336.84;;;5.46;49.09
61906;BME280;47863;55.766;37.672;2023-03-21T05:18:19;99332.22;;;5.38;49.24
61906;BME280;47863;55.766;37.672;2023-03-21T05:20:51;99322.56;;;5.37;48.78
61906;BME280;47863;55.766;37.672;2023-03-21T05:23:20;99337.41;;;5.40;49.35
61906;BME280;47863;55.766;37.672;2023-03-21T05:25:46;99340.22;;;5.38;49.17
61906;BME280;47863;55.766;37.672;2023-03-21T05:28:11;99334.63;;;5.41;49.30
61906;BME280;47863;55.766;37.672;2023-03-21T05:30:37;99340.47;;;5.45;49.20
61906;BME280;47863;55.766;37.672;2023-03-21T05:33:03;99309.16;;;5.39;48.77
61906;BME280;47863;55.766;37.672;2023-03-21T05:35:29;99323.97;;;5.61;48.82
61906;BME280;47863;55.766;37.672;2023-03-21T05:37:55;99328.44;;;5.80;48.92
61906;BME280;47863;55.766;37.672;2023-03-21T05:40:21;99240.41;;;5.35;48.27
61906;BME280;47863;55.766;37.672;2023-03-21T05:42:46;99328.72;;;5.96;49.10
61906;BME280;47863;55.766;37.672;2023-03-21T05:45:13;99307.03;;;6.01;48.59
61906;BME280;47863;55.766;37.672;2023-03-21T05:47:38;99328.09;;;6.22;48.62
61906;BME280;47863;55.766;37.672;2023-03-21T05:50:05;99298.16;;;6.20;48.59
61906;BME280;47863;55.766;37.672;2023-03-21T05:52:31;99312.25;;;6.30;48.58
61906;BME280;47863;55.766;37.672;2023-03-21T05:54:57;99332.75;;;6.57;48.43
61906;BME280;47863;55.766;37.672;2023-03-21T05:57:23;99329.66;;;6.62;48.36
61906;BME280;47863;55.766;37.672;2023-03-21T05:59:48;99288.13;;;6.41;48.32
61906;BME280;47863;55.766;37.672;2023-03-21T06:02:14;99337.59;;;6.71;48.70
61906;BME280;47863;55.766;37.672;2023-03-21T06:04:40;99328.69;;;6.81;48.38
61906;BME280;47863;55.766;37.672;2023-03-21T06:07:05;99327.00;;;6.89;48.37
61906;BME280;47863;55.766;37.672;2023-03-21T06:09:31;99324.41;;;6.98;48.38
61906;BME280;47863;55.766;37.672;2023-03-21T06:11:57;99329.88;;;6.96;48.51
61906;BME280;47863;55.766;37.672;2023-03-21T06:14:24;99333.09;;;7.00;48.35
61906;BME280;47863;55.766;37.672;2023-03-21T06:16:50;99318.31;;;6.87;48.60
61906;BME280;47863;55.766;37.672;2023-03-21T06:19:16;99322.19;;;6.93;48.60
61906;BME280;47863;55.766;37.672;2023-03-21T06:21:42;99328.50;;;6.92;48.72
61906;BME280;47863;55.766;37.672;2023-03-21T06:24:08;99329.59;;;6.99;48.48
61906;BME280;47863;55.766;37.672;2023-03-21T06:26:34;99327.16;;;7.06;48.48
61906;BME280;47863;55.766;37.672;2023-03-21T06:28:59;99308.72;;;6.94;48.73
61906;BME280;47863;55.766;37.672;2023-03-21T06:31:25;99313.09;;;6.95;48.58
61906;BME280;47863;55.766;37.672;2023-03-21T06:33:51;99313.38;;;6.92;48.80
61906;BME280;47863;55.766;37.672;2023-03-21T06:36:18;99312.22;;;6.95;48.82
61906;BME280;47863;55.766;37.672;2023-03-21T06:38:43;99296.09;;;6.97;49.09
61906;BME280;47863;55.766;37.672;2023-03-21T06:41:11;99312.50;;;7.20;49.05
61906;BME280;47863;55.766;37.672;2023-03-21T06:43:37;99292.56;;;7.24;48.95
61906;BME280;47863;55.766;37.672;2023-03-21T06:46:03;99292.47;;;7.33;48.92
61906;BME280;47863;55.766;37.672;2023-03-21T06:48:30;99299.31;;;7.36;48.89
61906;BME280;47863;55.766;37.672;2023-03-21T06:50:56;99283.88;;;7.22;49.08
61906;BME280;47863;55.766;37.672;2023-03-21T06:53:23;99302.00;;;7.36;49.02
61906;BME280;47863;55.766;37.672;2023-03-21T06:55:52;99272.75;;;7.26;49.23
61906;BME280;47863;55.766;37.672;2023-03-21T06:58:18;99268.41;;;7.43;49.05
61906;BME280;47863;55.766;37.672;2023-03-21T07:00:45;99261.66;;;7.49;48.58
61906;BME280;47863;55.766;37.672;2023-03-21T07:03:11;99298.41;;;7.89;48.71
61906;BME280;47863;55.766;37.672;2023-03-21T07:05:38;99293.16;;;8.24;48.42
61906;BME280;47863;55.766;37.672;2023-03-21T07:08:05;99283.22;;;8.77;47.94
61906;BME280;47863;55.766;37.672;2023-03-21T07:10:31;99285.53;;;9.39;47.26
61906;BME280;47863;55.766;37.672;2023-03-21T07:13:00;99285.53;;;9.88;47.17
61906;BME280;47863;55.766;37.672;2023-03-21T07:15:25;99257.38;;;10.17;46.53
61906;BME280;47863;55.766;37.672;2023-03-21T07:17:51;99285.13;;;11.11;45.86
61906;BME280;47863;55.766;37.672;2023-03-21T07:20:17;99282.69;;;12.08;45.08
61906;BME280;47863;55.766;37.672;2023-03-21T07:22:43;99249.97;;;13.16;44.08
61906;BME280;47863;55.766;37.672;2023-03-21T07:25:09;99277.66;;;14.37;43.04
61906;BME280;47863;55.766;37.672;2023-03-21T07:27:35;99277.94;;;15.52;42.18
61906;BME280;47863;55.766;37.672;2023-03-21T07:30:04;99274.41;;;16.05;41.91
61906;BME280;47863;55.766;37.672;2023-03-21T07:32:32;99275.06;;;15.80;42.31
61906;BME280;47863;55.766;37.672;2023-03-21T07:34:58;99271.56;;;14.98;43.06
61906;BME280;47863;55.766;37.672;2023-03-21T07:37:24;99269.38;;;14.04;43.82
61906;BME280;47863;55.766;37.672;2023-03-21T07:39:50;99287.44;;;13.17;44.35
61906;BME280;47863;55.766;37.672;2023-03-21T07:42:16;99281.13;;;12.59;44.70
61906;BME280;47863;55.766;37.672;2023-03-21T07:44:42;99234.38;;;11.70;45.01
61906;BME280;47863;55.766;37.672;2023-03-21T07:47:07;99251.25;;;11.18;45.20
61906;BME280;47863;55.766;37.672;2023-03-21T07:49:33;99275.88;;;10.90;46.00
61906;BME280;47863;55.766;37.672;2023-03-21T07:51:59;99258.28;;;10.48;46.25
61906;BME280;47863;55.766;37.672;2023-03-21T07:54:26;99262.88;;;10.31;46.68
61906;BME280;47863;55.766;37.672;2023-03-21T07:56:53;99277.94;;;10.24;46.76
61906;BME280;47863;55.766;37.672;2023-03-21T07:59:19;99255.91;;;10.06;47.18
61906;BME280;47863;55.766;37.672;2023-03-21T08:01:45;99248.06;;;9.96;46.89
61906;BME280;47863;55.766;37.672;2023-03-21T08:04:11;99272.97;;;9.97;47.24
61906;BME280;47863;55.766;37.672;2023-03-21T08:06:36;99277.03;;;9.76;48.05
61906;BME280;47863;55.766;37.672;2023-03-21T08:09:02;99252.94;;;9.51;47.95
61906;BME280;47863;55.766;37.672;2023-03-21T08:11:28;99264.97;;;9.39;48.83
61906;BME280;47863;55.766;37.672;2023-03-21T08:13:57;99252.44;;;9.07;49.78
61906;BME280;47863;55.766;37.672;2023-03-21T08:16:23;99277.94;;;8.85;50.28
61906;BME280;47863;55.766;37.672;2023-03-21T08:18:49;99247.13;;;8.64;50.41
61906;BME280;47863;55.766;37.672;2023-03-21T08:21:14;99250.06;;;9.04;49.71
61906;BME280;47863;55.766;37.672;2023-03-21T08:23:40;99235.22;;;9.67;48.55
61906;BME280;47863;55.766;37.672;2023-03-21T08:26:06;99259.41;;;10.62;47.62
61906;BME280;47863;55.766;37.672;2023-03-21T08:28:32;99246.88;;;10.94;47.33
61906;BME280;47863;55.766;37.672;2023-03-21T08:30:57;99233.84;;;11.14;46.85
61906;BME280;47863;55.766;37.672;2023-03-21T08:33:23;99239.25;;;11.06;47.41
61906;BME280;47863;55.766;37.672;2023-03-21T08:35:48;99270.63;;;10.97;47.83
61906;BME280;47863;55.766;37.672;2023-03-21T08:38:14;99234.41;;;10.47;48.79
61906;BME280;47863;55.766;37.672;2023-03-21T08:40:41;99268.06;;;10.17;49.74
61906;BME280;47863;55.766;37.672;2023-03-21T08:43:06;99266.31;;;9.84;50.45
61906;BME280;47863;55.766;37.672;2023-03-21T08:45:32;99260.81;;;9.53;50.81
61906;BME280;47863;55.766;37.672;2023-03-21T08:47:57;99253.47;;;9.39;50.81
61906;BME280;47863;55.766;37.672;2023-03-21T08:50:25;99236.25;;;9.08;51.11
61906;BME280;47863;55.766;37.672;2023-03-21T08:52:52;99228.84;;;8.94;51.67
61906;BME280;47863;55.766;37.672;2023-03-21T08:55:18;99214.81;;;8.76;51.92
61906;BME280;47863;55.766;37.672;2023-03-21T08:57:44;99239.50;;;8.78;52.10
61906;BME280;47863;55.766;37.672;2023-03-21T09:00:14;99251.69;;;8.80;52.14
61906;BME280;47863;55.766;37.672;2023-03-21T09:02:43;99255.91;;;8.83;51.86
61906;BME280;47863;55.766;37.672;2023-03-21T09:05:10;99262.22;;;8.82;52.77
61906;BME280;47863;55.766;37.672;2023-03-21T09:07:40;99254.97;;;8.58;54.55
61906;BME280;47863;55.766;37.672;2023-03-21T09:10:08;99261.63;;;8.53;55.05
61906;BME280;47863;55.766;37.672;2023-03-21T09:12:34;99272.59;;;8.42;57.46
61906;BME280;47863;55.766;37.672;2023-03-21T09:15:00;99246.47;;;8.28;58.00
61906;BME280;47863;55.766;37.672;2023-03-21T09:17:28;99257.63;;;8.49;57.85
61906;BME280;47863;55.766;37.672;2023-03-21T09:19:54;99260.25;;;9.00;57.06
61906;BME280;47863;55.766;37.672;2023-03-21T09:22:21;99258.13;;;9.53;55.61
61906;BME280;47863;55.766;37.672;2023-03-21T09:24:47;99240.69;;;10.06;54.22
61906;BME280;47863;55.766;37.672;2023-03-21T09:27:17;99211.81;;;10.41;53.79
61906;BME280;47863;55.766;37.672;2023-03-21T09:29:49;99256.00;;;11.08;53.12
61906;BME280;47863;55.766;37.672;2023-03-21T09:32:15;99252.81;;;11.50;51.91
61906;BME280;47863;55.766;37.672;2023-03-21T09:34:43;99257.91;;;11.83;51.20
61906;BME280;47863;55.766;37.672;2023-03-21T09:37:09;99250.94;;;11.97;51.07
61906;BME280;47863;55.766;37.672;2023-03-21T09:39:41;99244.44;;;11.92;50.84
61906;BME280;47863;55.766;37.672;2023-03-21T09:42:23;99244.13;;;11.48;51.37
61906;BME280;47863;55.766;37.672;2023-03-21T09:50:01;99232.06;;;10.44;53.44
61906;BME280;47863;55.766;37.672;2023-03-21T09:55:16;99224.88;;;11.83;51.48
61906;BME280;47863;55.766;37.672;2023-03-21T09:57:44;99219.75;;;13.14;49.42
61906;BME280;47863;55.766;37.672;2023-03-21T10:00:17;99215.13;;;14.07;47.88
61906;BME280;47863;55.766;37.672;2023-03-21T10:02:52;99186.75;;;14.46;46.51
61906;BME280;47863;55.766;37.672;2023-03-21T10:05:23;99205.03;;;15.39;45.43
61906;BME280;47863;55.766;37.672;2023-03-21T10:10:34;99194.81;;;17.93;43.23
61906;BME280;47863;55.766;37.672;2023-03-21T10:13:06;99196.44;;;18.87;40.15
61906;BME280;47863;55.766;37.672;2023-03-21T10:15:38;99193.97;;;18.67;39.63
61906;BME280;47863;55.766;37.672;2023-03-21T10:18:12;99191.31;;;17.86;39.53
61906;BME280;47863;55.766;37.672;2023-03-21T10:20:40;99192.78;;;17.07;41.09
61906;BME280;47863;55.766;37.672;2023-03-21T10:23:12;99186.63;;;16.34;41.24
61906;BME280;47863;55.766;37.672;2023-03-21T10:25:45;99184.84;;;16.01;41.87
61906;BME280;47863;55.766;37.672;2023-03-21T10:28:18;99157.03;;;15.67;41.46
61906;BME280;47863;55.766;37.672;2023-03-21T10:30:49;99175.56;;;15.31;41.44
61906;BME280;47863;55.766;37.672;2023-03-21T10:33:18;99189.88;;;15.44;41.74
61906;BME280;47863;55.766;37.672;2023-03-21T10:35:55;99185.31;;;15.45;41.56
61906;BME280;47863;55.766;37.672;2023-03-21T10:38:24;99171.91;;;14.70;42.55
61906;BME280;47863;55.766;37.672;2023-03-21T10:40:52;99155.88;;;14.07;43.40
61906;BME280;47863;55.766;37.672;2023-03-21T10:43:29;99166.59;;;13.65;43.10
61906;BME280;47863;55.766;37.672;2023-03-21T10:45:56;99152.44;;;12.85;44.26
61906;BME280;47863;55.766;37.672;2023-03-21T10:48:22;99167.44;;;12.95;44.50
61906;BME280;47863;55.766;37.672;2023-03-21T10:50:51;99164.72;;;13.16;44.22
61906;BME280;47863;55.766;37.672;2023-03-21T10:53:26;99167.03;;;14.04;43.49
61906;BME280;47863;55.766;37.672;2023-03-21T10:55:56;99161.03;;;15.25;41.71
61906;BME280;47863;55.766;37.672;2023-03-21T10:58:28;99152.63;;;16.58;39.99
61906;BME280;47863;55.766;37.672;2023-03-21T11:01:02;99170.69;;;17.85;38.13
61906;BME280;47863;55.766;37.672;2023-03-21T11:03:35;99160.63;;;18.48;37.01
61906;BME280;47863;55.766;37.672;2023-03-21T11:08:37;99161.44;;;20.10;36.14
61906;BME280;47863;55.766;37.672;2023-03-21T11:11:06;99162.25;;;21.20;35.13
61906;BME280;47863;55.766;37.672;2023-03-21T11:13:42;99167.09;;;22.03;32.49
61906;BME280;47863;55.766;37.672;2023-03-21T11:16:11;99172.31;;;22.65;32.39
61906;BME280;47863;55.766;37.672;2023-03-21T11:18:44;99166.56;;;23.16;31.40
61906;BME280;47863;55.766;37.672;2023-03-21T11:21:14;99138.94;;;23.45;31.08
61906;BME280;47863;55.766;37.672;2023-03-21T11:23:44;99163.25;;;24.21;30.84
61906;BME280;47863;55.766;37.672;2023-03-21T11:26:26;99156.03;;;24.00;30.21
61906;BME280;47863;55.766;37.672;2023-03-21T11:28:54;99139.09;;;23.01;28.94
61906;BME280;47863;55.766;37.672;2023-03-21T11:31:21;99151.19;;;22.33;30.68
61906;BME280;47863;55.766;37.672;2023-03-21T11:33:55;99153.06;;;22.77;29.60
61906;BME280;47863;55.766;37.672;2023-03-21T11:38:49;99135.91;;;22.15;27.32
61906;BME280;47863;55.766;37.672;2023-03-21T11:41:41;99137.72;;;22.27;28.01
61906;BME280;47863;55.766;37.672;2023-03-21T11:44:43;99126.09;;;22.86;28.26
61906;BME280;47863;55.766;37.672;2023-03-21T11:47:09;99120.63;;;22.58;26.24
61906;BME280;47863;55.766;37.672;2023-03-21T11:49:35;99146.88;;;21.98;25.99
61906;BME280;47863;55.766;37.672;2023-03-21T11:57:24;99123.28;;;21.36;27.13
61906;BME280;47863;55.766;37.672;2023-03-21T12:00:39;99119.75;;;21.36;26.80
61906;BME280;47863;55.766;37.672;2023-03-21T12:05:33;99121.16;;;21.22;25.68
61906;BME280;47863;55.766;37.672;2023-03-21T12:08:29;99103.91;;;20.41;26.11
61906;BME280;47863;55.766;37.672;2023-03-21T12:16:36;99117.72;;;20.80;26.63
61906;BME280;47863;55.766;37.672;2023-03-21T12:25:15;99098.19;;;21.00;26.35
61906;BME280;47863;55.766;37.672;2023-03-21T12:30:49;99100.31;;;20.53;26.38
61906;BME280;47863;55.766;37.672;2023-03-21T12:38:40;99090.56;;;20.40;25.81
61906;BME280;47863;55.766;37.672;2023-03-21T12:44:19;99081.47;;;19.70;25.80
61906;BME280;47863;55.766;37.672;2023-03-21T12:47:01;99079.25;;;19.20;25.75
61906;BME280;47863;55.766;37.672;2023-03-21T12:52:01;99020.47;;;18.72;26.09
61906;BME280;47863;55.766;37.672;2023-03-21T12:54:40;99028.09;;;18.81;25.83
61906;BME280;47863;55.766;37.672;2023-03-21T12:57:34;99066.69;;;18.53;26.11
61906;BME280;47863;55.766;37.672;2023-03-21T13:00:09;99062.41;;;18.46;26.75
61906;BME280;47863;55.766;37.672;2023-03-21T13:08:20;99051.28;;;18.35;26.19
61906;BME280;47863;55.766;37.672;2023-03-21T13:10:44;99040.50;;;17.61;26.96
61906;BME280;47863;55.766;37.672;2023-03-21T13:18:53;99067.13;;;17.21;27.35
61906;BME280;47863;55.766;37.672;2023-03-21T13:21:26;99066.72;;;16.99;27.63
61906;BME280;47863;55.766;37.672;2023-03-21T13:24:15;99059.31;;;16.81;27.86
61906;BME280;47863;55.766;37.672;2023-03-21T13:26:44;99064.59;;;16.69;28.12
61906;BME280;47863;55.766;37.672;2023-03-21T13:29:30;99060.22;;;16.43;28.31
61906;BME280;47863;55.766;37.672;2023-03-21T13:32:07;99061.41;;;16.09;28.61
61906;BME280;47863;55.766;37.672;2023-03-21T13:34:37;99064.31;;;16.07;28.97
61906;BME280;47863;55.766;37.672;2023-03-21T13:37:03;99038.16;;;16.08;28.71
61906;BME280;47863;55.766;37.672;2023-03-21T13:39:29;99056.47;;;15.99;28.89
61906;BME280;47863;55.766;37.672;2023-03-21T13:42:02;99042.91;;;15.40;29.23
61906;BME280;47863;55.766;37.672;2023-03-21T13:44:42;99059.97;;;14.94;30.27
61906;BME280;47863;55.766;37.672;2023-03-21T13:47:56;99048.09;;;13.87;31.38
61906;BME280;47863;55.766;37.672;2023-03-21T13:50:25;99055.66;;;13.07;32.65
61906;BME280;47863;55.766;37.672;2023-03-21T13:53:19;99057.50;;;12.57;33.12
61906;BME280;47863;55.766;37.672;2023-03-21T13:55:56;99048.91;;;12.25;33.35
61906;BME280;47863;55.766;37.672;2023-03-21T13:58:49;99053.31;;;11.96;34.23
61906;BME280;47863;55.766;37.672;2023-03-21T14:01:25;99051.97;;;11.56;34.82
61906;BME280;47863;55.766;37.672;2023-03-21T14:06:50;99008.34;;;10.64;35.99
61906;BME280;47863;55.766;37.672;2023-03-21T14:11:51;99034.94;;;10.43;37.05
61906;BME280;47863;55.766;37.672;2023-03-21T14:14:19;99031.16;;;10.29;36.97
61906;BME280;47863;55.766;37.672;2023-03-21T14:16:46;99024.81;;;9.99;36.83
61906;BME280;47863;55.766;37.672;2023-03-21T14:19:11;99023.72;;;9.85;37.18
61906;BME280;47863;55.766;37.672;2023-03-21T14:21:46;99046.34;;;9.74;36.95
61906;BME280;47863;55.766;37.672;2023-03-21T14:24:13;99043.56;;;9.59;37.32
61906;BME280;47863;55.766;37.672;2023-03-21T14:26:49;99038.28;;;9.43;37.32
61906;BME280;47863;55.766;37.672;2023-03-21T14:29:25;99039.97;;;9.36;38.10
61906;BME280;47863;55.766;37.672;2023-03-21T14:31:54;99039.81;;;9.29;38.17
61906;BME280;47863;55.766;37.672;2023-03-21T14:34:21;99016.31;;;9.08;37.63
61906;BME280;47863;55.766;37.672;2023-03-21T14:36:48;99036.66;;;9.25;37.74
61906;BME280;47863;55.766;37.672;2023-03-21T14:39:19;99046.81;;;9.38;37.48
61906;BME280;47863;55.766;37.672;2023-03-21T14:41:50;99042.94;;;9.49;37.37
61906;BME280;47863;55.766;37.672;2023-03-21T14:44:25;99004.06;;;9.38;37.44
61906;BME280;47863;55.766;37.672;2023-03-21T14:47:05;98999.19;;;9.42;37.26
61906;BME280;47863;55.766;37.672;2023-03-21T14:49:33;99028.38;;;9.60;37.61
61906;BME280;47863;55.766;37.672;2023-03-21T14:52:05;99035.19;;;9.62;37.87